sensor_id;sensor_type;location;lat;lon;timestamp;pressure;altitude;pressure_sealevel;temperature;humidity
55044;BME280;54902;50.420;18.854;2023-08-24T00:00:18;101621.33;;;17.24;61.23
55044;BME280;54902;50.420;18.854;2023-08-24T00:00:49;101623.32;;;17.22;61.25
55044;BME280;54902;50.420;18.854;2023-08-24T00:01:21;101624.34;;;17.21;61.25
55044;BME280;54902;50.420;18.854;2023-08-24T00:01:52;101625.38;;;17.20;61.26
55044;BME280;54902;50.420;18.854;2023-08-24T00:02:23;101621.88;;;17.18;61.27
55044;BME280;54902;50.420;18.854;2023-08-24T00:02:53;101626.55;;;17.18;61.30
55044;BME280;54902;50.420;18.854;2023-08-24T00:03:24;101622.89;;;17.17;61.30
55044;BME280;54902;50.420;18.854;2023-08-24T00:03:56;101622.19;;;17.15;61.31
55044;BME280;54902;50.420;18.854;2023-08-24T00:04:27;101625.10;;;17.14;61.26
55044;BME280;54902;50.420;18.854;2023-08-24T00:04:58;101634.41;;;17.13;61.30
55044;BME280;54902;50.420;18.854;2023-08-24T00:05:37;101619.85;;;17.11;61.33
55044;BME280;54902;50.420;18.854;2023-08-24T00:06:10;101617.25;;;17.09;61.25
55044;BME280;54902;50.420;18.854;2023-08-24T00:06:41;101622.92;;;17.08;61.26
55044;BME280;54902;50.420;18.854;2023-08-24T00:07:12;101628.60;;;17.06;61.30
55044;BME280;54902;50.420;18.854;2023-08-24T00:07:43;101626.86;;;17.05;61.31
55044;BME280;54902;50.420;18.854;2023-08-24T00:08:14;101623.39;;;17.03;61.34
55044;BME280;54902;50.420;18.854;2023-08-24T00:08:45;101627.16;;;17.02;61.37
55044;BME280;54902;50.420;18.854;2023-08-24T00:09:16;101627.32;;;17.01;61.37
55044;BME280;54902;50.420;18.854;2023-08-24T00:09:47;101635.76;;;16.99;61.39
55044;BME280;54902;50.420;18.854;2023-08-24T00:10:18;101635.01;;;16.97;61.38
55044;BME280;54902;50.420;18.854;2023-08-24T00:10:49;101622.22;;;16.96;61.36
55044;BME280;54902;50.420;18.854;2023-08-24T00:11:20;101624.27;;;16.94;61.38
55044;BME280;54902;50.420;18.854;2023-08-24T00:11:51;101622.52;;;16.93;61.39
55044;BME280;54902;50.420;18.854;2023-08-24T00:12:23;101620.77;;;16.92;61.41
55044;BME280;54902;50.420;18.854;2023-08-24T00:12:54;101624.59;;;16.91;61.41
55044;BME280;54902;50.420;18.854;2023-08-24T00:13:25;101621.08;;;16.89;61.44
55044;BME280;54902;50.420;18.854;2023-08-24T00:13:56;101626.60;;;16.89;61.43
55044;BME280;54902;50.420;18.854;2023-08-24T00:14:27;101626.76;;;16.88;61.44
55044;BME280;54902;50.420;18.854;2023-08-24T00:14:58;101621.39;;;16.87;61.43
55044;BME280;54902;50.420;18.854;2023-08-24T00:15:30;101626.91;;;16.87;61.43
55044;BME280;54902;50.420;18.854;2023-08-24T00:16:01;101629.83;;;16.85;61.41
55044;BME280;54902;50.420;18.854;2023-08-24T00:16:32;101626.33;;;16.83;61.42
55044;BME280;54902;50.420;18.854;2023-08-24T00:17:03;101626.33;;;16.83;61.46
55044;BME280;54902;50.420;18.854;2023-08-24T00:17:35;101625.47;;;16.83;61.46
55044;BME280;54902;50.420;18.854;2023-08-24T00:18:06;101620.24;;;16.80;61.46
55044;BME280;54902;50.420;18.854;2023-08-24T00:18:37;101625.77;;;16.80;61.44
55044;BME280;54902;50.420;18.854;2023-08-24T00:19:08;101618.50;;;16.79;61.47
55044;BME280;54902;50.420;18.854;2023-08-24T00:19:39;101622.27;;;16.78;61.48
55044;BME280;54902;50.420;18.854;2023-08-24T00:20:10;101620.52;;;16.77;61.49
55044;BME280;54902;50.420;18.854;2023-08-24T00:20:42;101624.32;;;16.76;61.50
55044;BME280;54902;50.420;18.854;2023-08-24T00:21:13;101619.80;;;16.75;61.50
55044;BME280;54902;50.420;18.854;2023-08-24T00:21:48;101621.84;;;16.73;61.48
55044;BME280;54902;50.420;18.854;2023-08-24T00:22:19;101622.84;;;16.72;61.47
55044;BME280;54902;50.420;18.854;2023-08-24T00:22:50;101626.65;;;16.71;61.50
55044;BME280;54902;50.420;18.854;2023-08-24T00:23:21;101619.38;;;16.70;61.50
55044;BME280;54902;50.420;18.854;2023-08-24T00:23:52;101623.14;;;16.69;61.51
55044;BME280;54902;50.420;18.854;2023-08-24T00:24:24;101620.53;;;16.67;61.53
55044;BME280;54902;50.420;18.854;2023-08-24T00:24:55;101624.31;;;16.66;61.53
55044;BME280;54902;50.420;18.854;2023-08-24T00:25:25;101625.20;;;16.67;61.61
55044;BME280;54902;50.420;18.854;2023-08-24T00:25:56;101621.70;;;16.65;61.60
55044;BME280;54902;50.420;18.854;2023-08-24T00:26:27;101625.47;;;16.64;61.63
55044;BME280;54902;50.420;18.854;2023-08-24T00:26:58;101619.09;;;16.63;61.62
55044;BME280;54902;50.420;18.854;2023-08-24T00:27:29;101625.77;;;16.61;61.62
55044;BME280;54902;50.420;18.854;2023-08-24T00:28:00;101628.53;;;16.61;61.62
55044;BME280;54902;50.420;18.854;2023-08-24T00:28:31;101629.53;;;16.60;61.66
55044;BME280;54902;50.420;18.854;2023-08-24T00:29:02;101626.93;;;16.58;61.63
55044;BME280;54902;50.420;18.854;2023-08-24T00:29:33;101627.83;;;16.59;61.61
55044;BME280;54902;50.420;18.854;2023-08-24T00:30:06;101632.44;;;16.58;61.62
55044;BME280;54902;50.420;18.854;2023-08-24T00:30:37;101618.80;;;16.57;61.64
55044;BME280;54902;50.420;18.854;2023-08-24T00:31:08;101622.56;;;16.56;61.64
55044;BME280;54902;50.420;18.854;2023-08-24T00:31:39;101625.32;;;16.56;61.63
55044;BME280;54902;50.420;18.854;2023-08-24T00:32:10;101631.89;;;16.55;61.65
55044;BME280;54902;50.420;18.854;2023-08-24T00:32:41;101626.38;;;16.55;61.64
55044;BME280;54902;50.420;18.854;2023-08-24T00:33:12;101626.48;;;16.53;61.58
55044;BME280;54902;50.420;18.854;2023-08-24T00:33:43;101628.39;;;16.53;61.58
55044;BME280;54902;50.420;18.854;2023-08-24T00:34:14;101622.02;;;16.52;61.61
55044;BME280;54902;50.420;18.854;2023-08-24T00:34:45;101623.02;;;16.51;61.68
55044;BME280;54902;50.420;18.854;2023-08-24T00:35:16;101623.17;;;16.50;61.63
55044;BME280;54902;50.420;18.854;2023-08-24T00:35:47;101614.45;;;16.45;61.71
55044;BME280;54902;50.420;18.854;2023-08-24T00:36:18;101623.17;;;16.50;61.72
55044;BME280;54902;50.420;18.854;2023-08-24T00:36:51;101620.56;;;16.48;61.68
55044;BME280;54902;50.420;18.854;2023-08-24T00:37:22;101622.43;;;16.48;61.72
55044;BME280;54902;50.420;18.854;2023-08-24T00:37:53;101624.32;;;16.47;61.73
55044;BME280;54902;50.420;18.854;2023-08-24T00:38:24;101627.23;;;16.46;61.69
55044;BME280;54902;50.420;18.854;2023-08-24T00:38:55;101625.34;;;16.46;61.74
55044;BME280;54902;50.420;18.854;2023-08-24T00:39:26;101618.97;;;16.46;61.77
55044;BME280;54902;50.420;18.854;2023-08-24T00:40:00;101623.73;;;16.44;61.76
55044;BME280;54902;50.420;18.854;2023-08-24T00:40:37;101620.11;;;16.43;61.73
55044;BME280;54902;50.420;18.854;2023-08-24T00:41:09;101624.74;;;16.43;61.77
55044;BME280;54902;50.420;18.854;2023-08-24T00:41:40;101628.54;;;16.42;61.79
55044;BME280;54902;50.420;18.854;2023-08-24T00:42:12;101621.27;;;16.41;61.76
55044;BME280;54902;50.420;18.854;2023-08-24T00:42:45;101627.80;;;16.40;61.73
55044;BME280;54902;50.420;18.854;2023-08-24T00:43:19;101620.69;;;16.37;61.72
55044;BME280;54902;50.420;18.854;2023-08-24T00:43:55;101623.45;;;16.37;61.78
55044;BME280;54902;50.420;18.854;2023-08-24T00:44:26;101627.21;;;16.36;61.81
55044;BME280;54902;50.420;18.854;2023-08-24T00:44:57;101626.35;;;16.36;61.82
55044;BME280;54902;50.420;18.854;2023-08-24T00:45:30;101629.26;;;16.34;61.84
55044;BME280;54902;50.420;18.854;2023-08-24T00:46:03;101631.16;;;16.34;61.82
55044;BME280;54902;50.420;18.854;2023-08-24T00:46:35;101629.41;;;16.33;61.81
55044;BME280;54902;50.420;18.854;2023-08-24T00:47:07;101630.42;;;16.32;61.83
55044;BME280;54902;50.420;18.854;2023-08-24T00:47:44;101631.42;;;16.31;61.86
55044;BME280;54902;50.420;18.854;2023-08-24T00:48:15;101624.20;;;16.30;61.82
55044;BME280;54902;50.420;18.854;2023-08-24T00:48:47;101623.30;;;16.30;61.90
55044;BME280;54902;50.420;18.854;2023-08-24T00:49:18;101626.20;;;16.28;61.88
55044;BME280;54902;50.420;18.854;2023-08-24T00:49:49;101628.10;;;16.28;61.84
55044;BME280;54902;50.420;18.854;2023-08-24T00:50:20;101621.70;;;16.27;61.89
55044;BME280;54902;50.420;18.854;2023-08-24T00:50:52;101625.49;;;16.26;61.92
55044;BME280;54902;50.420;18.854;2023-08-24T00:51:24;101629.26;;;16.25;61.93
55044;BME280;54902;50.420;18.854;2023-08-24T00:51:55;101625.58;;;16.25;61.94
55044;BME280;54902;50.420;18.854;2023-08-24T00:52:28;101620.21;;;16.23;61.93
55044;BME280;54902;50.420;18.854;2023-08-24T00:53:01;101629.48;;;16.22;61.91
55044;BME280;54902;50.420;18.854;2023-08-24T00:53:33;101631.39;;;16.22;61.95
55044;BME280;54902;50.420;18.854;2023-08-24T00:54:04;101623.26;;;16.20;61.91
55044;BME280;54902;50.420;18.854;2023-08-24T00:54:36;101624.27;;;16.19;61.88
55044;BME280;54902;50.420;18.854;2023-08-24T00:55:10;101619.76;;;16.18;61.93
55044;BME280;54902;50.420;18.854;2023-08-24T00:55:41;101624.42;;;16.18;61.95
55044;BME280;54902;50.420;18.854;2023-08-24T00:56:12;101619.91;;;16.17;61.94
55044;BME280;54902;50.420;18.854;2023-08-24T00:56:43;101626.47;;;16.16;61.95
55044;BME280;54902;50.420;18.854;2023-08-24T00:57:15;101621.80;;;16.16;61.91
55044;BME280;54902;50.420;18.854;2023-08-24T00:57:46;101621.96;;;16.15;61.92
55044;BME280;54902;50.420;18.854;2023-08-24T00:58:18;101622.81;;;16.15;61.97
55044;BME280;54902;50.420;18.854;2023-08-24T00:58:51;101619.35;;;16.13;61.96
55044;BME280;54902;50.420;18.854;2023-08-24T00:59:22;101625.88;;;16.12;61.98
55044;BME280;54902;50.420;18.854;2023-08-24T00:59:55;101627.73;;;16.12;62.00
55044;BME280;54902;50.420;18.854;2023-08-24T01:00:26;101623.26;;;16.11;62.02
55044;BME280;54902;50.420;18.854;2023-08-24T01:00:57;101623.26;;;16.11;61.99
55044;BME280;54902;50.420;18.854;2023-08-24T01:01:29;101622.37;;;16.10;62.02
55044;BME280;54902;50.420;18.854;2023-08-24T01:02:00;101621.66;;;16.08;62.02
55044;BME280;54902;50.420;18.854;2023-08-24T01:02:31;101621.66;;;16.08;62.05
55044;BME280;54902;50.420;18.854;2023-08-24T01:03:02;101619.91;;;16.07;62.05
55044;BME280;54902;50.420;18.854;2023-08-24T01:03:33;101624.57;;;16.07;62.05
55044;BME280;54902;50.420;18.854;2023-08-24T01:04:04;101616.44;;;16.05;62.08
55044;BME280;54902;50.420;18.854;2023-08-24T01:04:36;101621.95;;;16.05;62.09
55044;BME280;54902;50.420;18.854;2023-08-24T01:05:07;101622.95;;;16.04;62.12
55044;BME280;54902;50.420;18.854;2023-08-24T01:05:38;101618.45;;;16.03;62.13
55044;BME280;54902;50.420;18.854;2023-08-24T01:06:09;101626.01;;;16.01;62.17
55044;BME280;54902;50.420;18.854;2023-08-24T01:06:40;101622.36;;;16.01;62.15
55044;BME280;54902;50.420;18.854;2023-08-24T01:07:11;101621.50;;;16.00;62.13
55044;BME280;54902;50.420;18.854;2023-08-24T01:07:43;101628.02;;;15.99;62.07
55044;BME280;54902;50.420;18.854;2023-08-24T01:08:14;101632.67;;;15.99;62.09
55044;BME280;54902;50.420;18.854;2023-08-24T01:08:45;101635.55;;;15.97;62.13
55044;BME280;54902;50.420;18.854;2023-08-24T01:09:16;101628.31;;;15.96;62.16
55044;BME280;54902;50.420;18.854;2023-08-24T01:09:48;101628.31;;;15.96;62.14
55044;BME280;54902;50.420;18.854;2023-08-24T01:10:19;101626.57;;;15.95;62.14
55044;BME280;54902;50.420;18.854;2023-08-24T01:11:01;101624.81;;;15.94;62.09
55044;BME280;54902;50.420;18.854;2023-08-24T01:11:49;101631.21;;;15.95;62.04
55044;BME280;54902;50.420;18.854;2023-08-24T01:13:10;101632.22;;;15.94;62.07
55044;BME280;54902;50.420;18.854;2023-08-24T01:13:58;101632.38;;;15.92;62.13
55044;BME280;54902;50.420;18.854;2023-08-24T01:14:47;101631.47;;;15.92;62.13
55044;BME280;54902;50.420;18.854;2023-08-24T01:15:27;101636.98;;;15.92;62.20
55044;BME280;54902;50.420;18.854;2023-08-24T01:15:58;101630.62;;;15.91;62.17
55044;BME280;54902;50.420;18.854;2023-08-24T01:16:33;101630.62;;;15.91;62.18
55044;BME280;54902;50.420;18.854;2023-08-24T01:17:13;101634.38;;;15.90;62.21
55044;BME280;54902;50.420;18.854;2023-08-24T01:17:46;101629.01;;;15.89;62.23
55044;BME280;54902;50.420;18.854;2023-08-24T01:18:19;101630.02;;;15.88;62.24
55044;BME280;54902;50.420;18.854;2023-08-24T01:18:51;101634.52;;;15.89;62.24
55044;BME280;54902;50.420;18.854;2023-08-24T01:20:05;101624.65;;;15.86;62.47
55044;BME280;54902;50.420;18.854;2023-08-24T01:20:37;101638.44;;;15.86;62.50
55044;BME280;54902;50.420;18.854;2023-08-24T01:21:08;101629.45;;;15.84;62.50
55044;BME280;54902;50.420;18.854;2023-08-24T01:21:40;101628.55;;;15.84;62.52
55044;BME280;54902;50.420;18.854;2023-08-24T01:23:06;101626.80;;;15.83;62.60
55044;BME280;54902;50.420;18.854;2023-08-24T01:24:25;101627.98;;;15.80;62.51
55044;BME280;54902;50.420;18.854;2023-08-24T01:25:48;101629.14;;;15.78;62.50
55044;BME280;54902;50.420;18.854;2023-08-24T01:26:22;101628.25;;;15.77;62.47
55044;BME280;54902;50.420;18.854;2023-08-24T01:26:53;101621.02;;;15.76;62.47
55044;BME280;54902;50.420;18.854;2023-08-24T01:27:26;101628.39;;;15.76;62.47
55044;BME280;54902;50.420;18.854;2023-08-24T01:27:59;101627.53;;;15.75;62.44
55044;BME280;54902;50.420;18.854;2023-08-24T01:28:32;101629.40;;;15.75;62.48
55044;BME280;54902;50.420;18.854;2023-08-24T01:29:04;101628.53;;;15.74;62.48
55044;BME280;54902;50.420;18.854;2023-08-24T01:29:37;101621.27;;;15.73;62.46
55044;BME280;54902;50.420;18.854;2023-08-24T01:30:11;101618.52;;;15.73;62.44
55044;BME280;54902;50.420;18.854;2023-08-24T01:30:43;101627.08;;;15.71;62.44
55044;BME280;54902;50.420;18.854;2023-08-24T01:31:15;101621.56;;;15.71;62.43
55044;BME280;54902;50.420;18.854;2023-08-24T01:31:48;101621.56;;;15.71;62.44
55044;BME280;54902;50.420;18.854;2023-08-24T01:32:20;101621.56;;;15.71;62.44
55044;BME280;54902;50.420;18.854;2023-08-24T01:32:51;101629.09;;;15.69;62.46
55044;BME280;54902;50.420;18.854;2023-08-24T01:33:22;101629.98;;;15.69;62.47
55044;BME280;54902;50.420;18.854;2023-08-24T01:33:53;101622.71;;;15.68;62.49
55044;BME280;54902;50.420;18.854;2023-08-24T01:34:24;101629.09;;;15.69;62.53
55044;BME280;54902;50.420;18.854;2023-08-24T01:34:55;101628.38;;;15.67;62.52
55044;BME280;54902;50.420;18.854;2023-08-24T01:35:26;101626.47;;;15.67;62.55
55044;BME280;54902;50.420;18.854;2023-08-24T01:35:57;101626.63;;;15.66;62.55
55044;BME280;54902;50.420;18.854;2023-08-24T01:36:28;101621.26;;;15.64;62.55
55044;BME280;54902;50.420;18.854;2023-08-24T01:37:00;101625.91;;;15.64;62.57
55044;BME280;54902;50.420;18.854;2023-08-24T01:37:31;101615.89;;;15.63;62.61
55044;BME280;54902;50.420;18.854;2023-08-24T01:38:03;101624.15;;;15.63;62.57
55044;BME280;54902;50.420;18.854;2023-08-24T01:38:37;101619.79;;;15.60;62.59
55044;BME280;54902;50.420;18.854;2023-08-24T01:40:56;101618.18;;;15.58;62.60
55044;BME280;54902;50.420;18.854;2023-08-24T01:41:29;101630.21;;;15.57;62.59
55044;BME280;54902;50.420;18.854;2023-08-24T01:42:05;101619.20;;;15.57;62.59
55044;BME280;54902;50.420;18.854;2023-08-24T01:43:24;101621.23;;;15.55;62.60
55044;BME280;54902;50.420;18.854;2023-08-24T01:43:58;101621.37;;;15.53;62.62
55044;BME280;54902;50.420;18.854;2023-08-24T01:44:35;101621.52;;;15.52;62.65
55044;BME280;54902;50.420;18.854;2023-08-24T01:45:08;101627.02;;;15.52;62.65
55044;BME280;54902;50.420;18.854;2023-08-24T01:45:42;101628.03;;;15.51;62.69
55044;BME280;54902;50.420;18.854;2023-08-24T01:46:15;101620.77;;;15.50;62.68
55044;BME280;54902;50.420;18.854;2023-08-24T01:46:48;101619.02;;;15.49;62.60
55044;BME280;54902;50.420;18.854;2023-08-24T01:47:21;101618.16;;;15.48;62.63
55044;BME280;54902;50.420;18.854;2023-08-24T01:47:54;101623.66;;;15.48;62.59
55044;BME280;54902;50.420;18.854;2023-08-24T01:48:25;101620.02;;;15.48;62.61
55044;BME280;54902;50.420;18.854;2023-08-24T01:48:57;101616.55;;;15.46;62.55
55044;BME280;54902;50.420;18.854;2023-08-24T01:49:29;101619.30;;;15.46;62.59
55044;BME280;54902;50.420;18.854;2023-08-24T01:50:01;101619.45;;;15.44;62.59
55044;BME280;54902;50.420;18.854;2023-08-24T01:50:33;101618.55;;;15.44;62.64
55044;BME280;54902;50.420;18.854;2023-08-24T01:51:05;101618.55;;;15.44;62.63
55044;BME280;54902;50.420;18.854;2023-08-24T01:51:37;101622.34;;;15.43;62.58
55044;BME280;54902;50.420;18.854;2023-08-24T01:52:09;101624.21;;;15.42;62.62
55044;BME280;54902;50.420;18.854;2023-08-24T01:52:41;101628.86;;;15.42;62.63
55044;BME280;54902;50.420;18.854;2023-08-24T01:53:13;101620.60;;;15.42;62.63
55044;BME280;54902;50.420;18.854;2023-08-24T01:53:44;101621.59;;;15.41;62.67
55044;BME280;54902;50.420;18.854;2023-08-24T01:54:15;101624.36;;;15.41;62.66
55044;BME280;54902;50.420;18.854;2023-08-24T01:54:47;101621.74;;;15.39;62.68
55044;BME280;54902;50.420;18.854;2023-08-24T01:55:19;101621.74;;;15.39;62.67
55044;BME280;54902;50.420;18.854;2023-08-24T01:55:50;101626.39;;;15.39;62.70
55044;BME280;54902;50.420;18.854;2023-08-24T01:56:21;101618.13;;;15.39;62.70
55044;BME280;54902;50.420;18.854;2023-08-24T01:56:55;101622.89;;;15.37;62.70
55044;BME280;54902;50.420;18.854;2023-08-24T01:57:26;101615.63;;;15.36;62.72
55044;BME280;54902;50.420;18.854;2023-08-24T01:57:58;101626.65;;;15.36;62.73
55044;BME280;54902;50.420;18.854;2023-08-24T01:58:29;101622.03;;;15.36;62.74
55044;BME280;54902;50.420;18.854;2023-08-24T01:58:59;101613.91;;;15.35;62.75
55044;BME280;54902;50.420;18.854;2023-08-24T01:59:30;101624.92;;;15.35;62.75
55044;BME280;54902;50.420;18.854;2023-08-24T02:00:02;101623.17;;;15.34;62.75
55044;BME280;54902;50.420;18.854;2023-08-24T02:00:37;101617.66;;;15.34;62.73
55044;BME280;54902;50.420;18.854;2023-08-24T02:01:09;101623.31;;;15.32;62.76
55044;BME280;54902;50.420;18.854;2023-08-24T02:01:40;101619.67;;;15.32;62.78
55044;BME280;54902;50.420;18.854;2023-08-24T02:02:12;101628.06;;;15.30;62.80
55044;BME280;54902;50.420;18.854;2023-08-24T02:02:44;101617.95;;;15.31;62.78
55044;BME280;54902;50.420;18.854;2023-08-24T02:03:15;101616.20;;;15.30;62.73
55044;BME280;54902;50.420;18.854;2023-08-24T02:03:46;101624.46;;;15.30;62.77
55044;BME280;54902;50.420;18.854;2023-08-24T02:04:17;101613.59;;;15.28;62.74
55044;BME280;54902;50.420;18.854;2023-08-24T02:04:48;101618.20;;;15.28;62.79
55044;BME280;54902;50.420;18.854;2023-08-24T02:05:19;101613.73;;;15.27;62.79
55044;BME280;54902;50.420;18.854;2023-08-24T02:05:50;101613.73;;;15.27;62.79
55044;BME280;54902;50.420;18.854;2023-08-24T02:06:21;101617.48;;;15.26;62.81
55044;BME280;54902;50.420;18.854;2023-08-24T02:06:52;101607.47;;;15.25;62.82
55044;BME280;54902;50.420;18.854;2023-08-24T02:07:23;101612.98;;;15.25;62.87
55044;BME280;54902;50.420;18.854;2023-08-24T02:07:54;101610.37;;;15.23;62.89
55044;BME280;54902;50.420;18.854;2023-08-24T02:08:25;101613.98;;;15.24;62.88
55044;BME280;54902;50.420;18.854;2023-08-24T02:08:56;101613.27;;;15.22;62.86
55044;BME280;54902;50.420;18.854;2023-08-24T02:09:27;101613.27;;;15.22;62.80
55044;BME280;54902;50.420;18.854;2023-08-24T02:09:58;101610.52;;;15.22;62.80
55044;BME280;54902;50.420;18.854;2023-08-24T02:10:29;101611.51;;;15.21;62.81
55044;BME280;54902;50.420;18.854;2023-08-24T02:11:00;101611.51;;;15.21;62.88
55044;BME280;54902;50.420;18.854;2023-08-24T02:11:31;101620.77;;;15.20;62.90
55044;BME280;54902;50.420;18.854;2023-08-24T02:12:02;101614.37;;;15.19;62.90
55044;BME280;54902;50.420;18.854;2023-08-24T02:12:33;101616.24;;;15.19;62.91
55044;BME280;54902;50.420;18.854;2023-08-24T02:13:04;101613.48;;;15.19;62.90
55044;BME280;54902;50.420;18.854;2023-08-24T02:13:35;101611.76;;;15.18;62.90
55044;BME280;54902;50.420;18.854;2023-08-24T02:14:06;101613.62;;;15.17;62.86
55044;BME280;54902;50.420;18.854;2023-08-24T02:14:37;101614.52;;;15.18;62.90
55044;BME280;54902;50.420;18.854;2023-08-24T02:15:09;101611.90;;;15.16;62.92
55044;BME280;54902;50.420;18.854;2023-08-24T02:15:40;101611.90;;;15.16;62.99
55044;BME280;54902;50.420;18.854;2023-08-24T02:16:11;101609.25;;;15.15;62.96
55044;BME280;54902;50.420;18.854;2023-08-24T02:16:43;101609.25;;;15.15;62.95
55044;BME280;54902;50.420;18.854;2023-08-24T02:17:14;101609.25;;;15.15;62.94
55044;BME280;54902;50.420;18.854;2023-08-24T02:17:45;101605.79;;;15.13;62.95
55044;BME280;54902;50.420;18.854;2023-08-24T02:18:16;101613.05;;;15.14;62.96
55044;BME280;54902;50.420;18.854;2023-08-24T02:18:47;101609.40;;;15.13;62.99
55044;BME280;54902;50.420;18.854;2023-08-24T02:19:18;101609.55;;;15.12;63.00
55044;BME280;54902;50.420;18.854;2023-08-24T02:19:49;101609.55;;;15.12;62.99
55044;BME280;54902;50.420;18.854;2023-08-24T02:20:20;101607.80;;;15.11;62.98
55044;BME280;54902;50.420;18.854;2023-08-24T02:20:51;101608.82;;;15.10;62.99
55044;BME280;54902;50.420;18.854;2023-08-24T02:21:22;101611.58;;;15.10;62.99
55044;BME280;54902;50.420;18.854;2023-08-24T02:21:53;101612.43;;;15.11;63.00
55044;BME280;54902;50.420;18.854;2023-08-24T02:22:24;101612.58;;;15.09;62.96
55044;BME280;54902;50.420;18.854;2023-08-24T02:22:55;101612.58;;;15.09;62.97
55044;BME280;54902;50.420;18.854;2023-08-24T02:23:26;101613.44;;;15.10;62.96
55044;BME280;54902;50.420;18.854;2023-08-24T02:23:57;101612.58;;;15.09;62.99
55044;BME280;54902;50.420;18.854;2023-08-24T02:24:28;101606.32;;;15.07;62.97
55044;BME280;54902;50.420;18.854;2023-08-24T02:24:59;101614.58;;;15.07;62.95
55044;BME280;54902;50.420;18.854;2023-08-24T02:25:33;101613.73;;;15.07;62.98
55044;BME280;54902;50.420;18.854;2023-08-24T02:26:04;101601.85;;;15.06;63.00
55044;BME280;54902;50.420;18.854;2023-08-24T02:26:35;101611.96;;;15.06;63.00
55044;BME280;54902;50.420;18.854;2023-08-24T02:27:06;101601.85;;;15.06;63.00
55044;BME280;54902;50.420;18.854;2023-08-24T02:27:37;101617.48;;;15.06;62.98
55044;BME280;54902;50.420;18.854;2023-08-24T02:28:07;101617.62;;;15.04;63.07
55044;BME280;54902;50.420;18.854;2023-08-24T02:28:38;101610.22;;;15.05;63.10
55044;BME280;54902;50.420;18.854;2023-08-24T02:29:09;101618.48;;;15.05;63.12
55044;BME280;54902;50.420;18.854;2023-08-24T02:29:40;101610.35;;;15.03;63.12
55044;BME280;54902;50.420;18.854;2023-08-24T02:30:12;101607.61;;;15.03;63.10
55044;BME280;54902;50.420;18.854;2023-08-24T02:30:43;101613.11;;;15.03;63.10
55044;BME280;54902;50.420;18.854;2023-08-24T02:31:14;101609.50;;;15.03;63.12
55044;BME280;54902;50.420;18.854;2023-08-24T02:31:49;101619.65;;;15.02;63.12
55044;BME280;54902;50.420;18.854;2023-08-24T02:32:21;101612.39;;;15.01;63.10
55044;BME280;54902;50.420;18.854;2023-08-24T02:32:51;101610.50;;;15.02;63.11
55044;BME280;54902;50.420;18.854;2023-08-24T02:33:22;101603.23;;;15.01;63.11
55044;BME280;54902;50.420;18.854;2023-08-24T02:33:53;101608.75;;;15.01;63.09
55044;BME280;54902;50.420;18.854;2023-08-24T02:34:24;101607.88;;;15.00;63.10
55044;BME280;54902;50.420;18.854;2023-08-24T02:34:55;101608.75;;;15.01;63.11
55044;BME280;54902;50.420;18.854;2023-08-24T02:35:27;101601.52;;;15.00;63.10
55044;BME280;54902;50.420;18.854;2023-08-24T02:35:57;101606.14;;;14.99;63.08
55044;BME280;54902;50.420;18.854;2023-08-24T02:36:28;101600.77;;;14.98;63.13
55044;BME280;54902;50.420;18.854;2023-08-24T02:37:03;101601.66;;;14.98;63.14
55044;BME280;54902;50.420;18.854;2023-08-24T02:37:34;101599.91;;;14.97;63.13
55044;BME280;54902;50.420;18.854;2023-08-24T02:38:05;101604.41;;;14.98;63.12
55044;BME280;54902;50.420;18.854;2023-08-24T02:38:36;101601.77;;;14.97;63.12
55044;BME280;54902;50.420;18.854;2023-08-24T02:39:07;101595.41;;;14.96;63.14
55044;BME280;54902;50.420;18.854;2023-08-24T02:39:38;101601.91;;;14.95;63.15
55044;BME280;54902;50.420;18.854;2023-08-24T02:40:09;101597.41;;;14.94;63.19
55044;BME280;54902;50.420;18.854;2023-08-24T02:40:40;101598.30;;;14.95;63.14
55044;BME280;54902;50.420;18.854;2023-08-24T02:41:11;101593.80;;;14.94;63.13
55044;BME280;54902;50.420;18.854;2023-08-24T02:41:44;101601.20;;;14.93;63.10
55044;BME280;54902;50.420;18.854;2023-08-24T02:42:15;101597.56;;;14.93;63.11
55044;BME280;54902;50.420;18.854;2023-08-24T02:42:46;101598.59;;;14.92;63.11
55044;BME280;54902;50.420;18.854;2023-08-24T02:43:17;101593.95;;;14.92;63.10
55044;BME280;54902;50.420;18.854;2023-08-24T02:43:48;101596.84;;;14.91;63.05
55044;BME280;54902;50.420;18.854;2023-08-24T02:44:19;101604.20;;;14.90;63.05
55044;BME280;54902;50.420;18.854;2023-08-24T02:44:50;101597.69;;;14.91;63.11
55044;BME280;54902;50.420;18.854;2023-08-24T02:45:20;101598.69;;;14.90;63.14
55044;BME280;54902;50.420;18.854;2023-08-24T02:45:53;101602.33;;;14.91;63.10
55044;BME280;54902;50.420;18.854;2023-08-24T02:46:24;101606.95;;;14.90;63.14
55044;BME280;54902;50.420;18.854;2023-08-24T02:46:55;101603.48;;;14.88;63.19
55044;BME280;54902;50.420;18.854;2023-08-24T02:47:26;101604.20;;;14.90;63.20
55044;BME280;54902;50.420;18.854;2023-08-24T02:47:56;101597.11;;;14.88;63.13
55044;BME280;54902;50.420;18.854;2023-08-24T02:48:27;101601.72;;;14.87;63.14
55044;BME280;54902;50.420;18.854;2023-08-24T02:48:58;101607.22;;;14.87;63.20
55044;BME280;54902;50.420;18.854;2023-08-24T02:49:29;101602.63;;;14.88;63.17
55044;BME280;54902;50.420;18.854;2023-08-24T02:50:00;101590.39;;;14.81;63.17
55044;BME280;54902;50.420;18.854;2023-08-24T02:50:31;101595.51;;;14.85;63.12
55044;BME280;54902;50.420;18.854;2023-08-24T02:51:03;101599.97;;;14.86;63.07